Time;durP1;ratioP1;P1;durP2;ratioP2;P2;SDS_P1;SDS_P2;PMS_P1;PMS_P2;Temp;Humidity;BMP_temperature;BMP_pressure;BME280_temperature;BME280_humidity;BME280_pressure;Samples;Min_cycle;Max_cycle;Signal;HPM_P1;HPM_P2
2021/10/31 00:00:09;;;;;;;15.47;12.63;;;11.90;99.90;;;12.69;84.27;99495.91;5052735;28;20224;-66
2021/10/31 00:02:37;;;;;;;13.23;11.83;;;11.80;99.90;;;12.71;84.00;99491.91;5051696;28;20201;-67
2021/10/31 00:05:08;;;;;;;13.93;12.47;;;11.80;99.90;;;12.78;83.64;99499.84;5052374;28;20193;-65
2021/10/31 00:07:37;;;;;;;15.23;12.00;;;11.90;99.90;;;12.81;83.50;99496.63;5051500;28;20233;-65
2021/10/31 00:10:07;;;;;;;15.30;11.77;;;11.90;99.90;;;12.68;84.44;99505.09;5051545;28;20208;-66
2021/10/31 00:12:36;;;;;;;14.33;12.17;;;11.90;99.90;;;12.64;83.88;99496.66;5051843;28;20244;-66
2021/10/31 00:15:06;;;;;;;14.43;12.33;;;11.90;99.90;;;12.54;85.09;99503.81;5051858;28;20313;-66
2021/10/31 00:17:34;;;;;;;14.33;11.63;;;11.80;99.90;;;12.58;84.79;99492.28;5051674;28;20296;-66
2021/10/31 00:20:02;;;;;;;13.10;11.70;;;11.80;99.90;;;12.48;86.02;99499.41;5051834;28;20293;-66
2021/10/31 00:22:30;;;;;;;13.03;11.63;;;11.70;99.90;;;12.54;84.97;99509.22;5051688;28;20296;-66
2021/10/31 00:24:59;;;;;;;15.23;11.60;;;11.70;99.90;;;12.35;86.01;99505.97;5051390;28;20197;-66
2021/10/31 00:27:27;;;;;;;14.00;11.60;;;11.70;99.90;;;12.15;88.09;99503.78;5051744;28;20336;-66
2021/10/31 00:29:55;;;;;;;12.47;11.10;;;11.60;99.90;;;12.14;89.24;99512.13;5051408;28;20215;-67
2021/10/31 00:32:23;;;;;;;12.27;10.53;;;11.50;99.90;;;12.39;88.92;99514.38;5051280;28;20292;-65
2021/10/31 00:34:51;;;;;;;11.83;10.63;;;11.40;99.90;;;12.30;89.33;99511.28;5051289;28;20312;-67
2021/10/31 00:37:19;;;;;;;12.90;10.80;;;11.60;99.90;;;12.07;90.95;99514.16;5054778;28;20304;-66
2021/10/31 00:39:47;;;;;;;11.37;9.77;;;11.40;99.90;;;12.02;91.98;99516.78;5055012;28;20680;-66
2021/10/31 00:42:17;;;;;;;11.93;10.10;;;11.30;99.90;;;11.90;93.32;99511.47;5055659;28;20224;-65
2021/10/31 00:44:45;;;;;;;11.77;10.43;;;11.30;99.90;;;11.91;93.64;99515.78;5055660;28;20626;-66
2021/10/31 00:47:13;;;;;;;12.27;10.53;;;11.30;99.90;;;12.00;94.00;99527.00;5055595;28;20229;-66
2021/10/31 00:49:41;;;;;;;12.97;11.23;;;11.30;99.90;;;12.25;93.44;99519.31;5055383;28;20293;-66
2021/10/31 00:52:11;;;;;;;11.63;10.43;;;11.40;99.90;;;12.28;92.76;99529.63;5055215;28;20713;-66
2021/10/31 00:54:39;;;;;;;11.40;10.13;;;11.50;99.90;;;12.13;93.42;99535.59;5055147;28;20329;-65
2021/10/31 00:57:10;;;;;;;12.37;10.50;;;11.50;99.90;;;12.29;93.26;99542.88;5055526;28;20656;-65
2021/10/31 00:59:39;;;;;;;11.97;10.37;;;11.50;99.90;;;12.24;93.49;99544.69;5055401;28;20244;-66
2021/10/31 01:02:10;;;;;;;13.13;11.07;;;11.50;99.90;;;12.17;92.81;99544.84;5055309;28;20205;-66
2021/10/31 01:04:46;;;;;;;11.87;10.03;;;11.50;99.90;;;12.24;93.33;99545.47;5055203;28;20532;-65
2021/10/31 01:07:39;;;;;;;15.13;10.77;;;11.50;99.90;;;12.17;93.83;99552.97;5055046;28;20235;-65
2021/10/31 01:10:20;;;;;;;11.97;10.30;;;11.40;99.90;;;12.11;93.80;99551.22;5054911;28;20268;-65
2021/10/31 01:13:37;;;;;;;12.30;10.47;;;11.40;99.90;;;11.85;95.49;99556.41;5055311;28;20221;-64
2021/10/31 01:16:29;;;;;;;15.23;10.77;;;11.30;99.90;;;11.85;96.08;99561.81;5055039;28;20314;-66
2021/10/31 01:19:35;;;;;;;13.00;10.70;;;11.20;99.90;;;11.89;95.41;99555.69;5054924;28;20209;-65
2021/10/31 01:22:16;;;;;;;13.10;10.80;;;11.20;99.90;;;11.79;96.77;99552.81;5054849;28;20208;-65
2021/10/31 01:25:03;;;;;;;12.37;10.50;;;11.10;99.90;;;11.88;96.65;99553.22;5054627;28;20226;-66
2021/10/31 01:27:58;;;;;;;13.17;10.70;;;11.10;99.90;;;11.91;97.12;99555.44;5055264;28;20212;-65
2021/10/31 01:30:42;;;;;;;12.47;10.80;;;11.10;99.90;;;11.69;98.33;99549.94;5054921;28;20268;-65
2021/10/31 01:33:31;;;;;;;14.03;11.03;;;11.00;99.90;;;11.84;97.73;99552.91;5054611;28;20185;-66
2021/10/31 01:36:07;;;;;;;13.73;11.47;;;11.10;99.90;;;11.73;98.31;99540.28;5054764;28;20285;-65
2021/10/31 01:38:47;;;;;;;12.00;10.47;;;11.00;99.90;;;11.81;99.23;99536.38;5054250;28;20264;-65
2021/10/31 01:41:34;;;;;;;13.30;11.00;;;11.00;99.90;;;11.94;98.33;99544.19;5054604;28;20181;-67
2021/10/31 01:44:12;;;;;;;13.23;10.60;;;11.00;99.90;;;12.12;97.34;99542.06;5054624;28;20291;-63
2021/10/31 01:46:51;;;;;;;15.80;11.17;;;11.10;99.90;;;11.86;98.36;99534.59;5054142;28;20217;-65
2021/10/31 01:49:35;;;;;;;15.43;11.03;;;11.10;99.90;;;11.76;100.00;99553.28;5053181;28;20185;-65
2021/10/31 01:52:14;;;;;;;11.60;10.37;;;11.10;99.90;;;12.05;99.64;99536.00;5054368;28;20568;-66
2021/10/31 01:54:51;;;;;;;13.60;10.77;;;11.10;99.90;;;11.64;100.00;99539.03;5053797;28;20212;-66
2021/10/31 01:57:23;;;;;;;13.77;10.63;;;11.00;99.90;;;11.52;100.00;99540.09;5054350;28;20188;-64
2021/10/31 02:00:00;;;;;;;11.30;9.97;;;10.90;99.90;;;11.60;100.00;99551.31;5054118;28;20208;-65
2021/10/31 02:02:34;;;;;;;12.47;10.23;;;10.90;99.90;;;11.64;100.00;99549.00;5054166;28;20191;-66
2021/10/31 02:05:07;;;;;;;12.17;9.93;;;10.90;99.90;;;11.79;100.00;99562.78;5054046;28;20181;-65
2021/10/31 02:07:37;;;;;;;12.57;10.03;;;11.00;99.90;;;11.77;100.00;99556.81;5053680;28;20244;-64
2021/10/31 02:10:07;;;;;;;13.07;10.07;;;11.00;99.90;;;11.83;100.00;99559.38;5053960;28;20292;-64
2021/10/31 02:12:38;;;;;;;11.83;9.90;;;11.00;99.90;;;11.65;100.00;99548.75;5054078;28;20186;-65
2021/10/31 02:15:09;;;;;;;14.13;10.37;;;10.90;99.90;;;11.51;100.00;99560.06;5053497;28;20215;-65
2021/10/31 02:17:37;;;;;;;11.53;9.57;;;10.90;99.90;;;11.51;100.00;99557.34;5053424;28;20188;-66
2021/10/31 02:20:09;;;;;;;12.27;10.40;;;10.90;99.90;;;11.54;100.00;99559.56;5053552;28;20752;-66
2021/10/31 02:22:39;;;;;;;10.93;9.47;;;10.80;99.90;;;11.58;100.00;99558.88;5053149;28;20281;-65
2021/10/31 02:25:10;;;;;;;12.43;10.30;;;10.80;99.90;;;11.73;100.00;99559.19;5053445;28;20200;-65
2021/10/31 02:27:42;;;;;;;10.73;9.50;;;10.80;99.90;;;11.82;100.00;99563.09;5053464;28;20193;-65
2021/10/31 02:30:11;;;;;;;13.03;10.37;;;10.90;99.90;;;11.88;100.00;99564.03;5053745;28;20188;-65
2021/10/31 02:32:39;;;;;;;12.57;10.10;;;11.00;99.90;;;11.90;100.00;99560.03;5053345;28;20248;-65
2021/10/31 02:35:12;;;;;;;12.00;9.43;;;11.00;99.90;;;12.06;100.00;99564.63;5053630;28;20312;-65
2021/10/31 02:37:41;;;;;;;11.07;9.33;;;11.10;99.90;;;12.09;100.00;99571.44;5053179;28;20194;-66
2021/10/31 02:40:14;;;;;;;11.10;9.33;;;11.10;99.90;;;12.15;100.00;99571.28;5053562;28;20221;-66
2021/10/31 02:42:42;;;;;;;10.67;9.50;;;11.20;99.90;;;11.99;100.00;99577.47;5053425;28;20555;-66
2021/10/31 02:45:12;;;;;;;11.63;9.60;;;11.20;99.90;;;12.40;100.00;99578.16;5053384;28;20292;-65
2021/10/31 02:47:46;;;;;;;10.57;9.47;;;11.30;99.90;;;12.20;100.00;99570.53;5053249;28;20189;-64
2021/10/31 02:50:19;;;;;;;11.07;9.40;;;11.30;99.90;;;12.12;100.00;99569.06;5053363;28;20182;-65
2021/10/31 02:53:04;;;;;;;10.77;8.77;;;11.30;99.90;;;12.03;100.00;99575.09;5052922;28;20185;-67
2021/10/31 02:55:44;;;;;;;10.50;9.13;;;11.20;99.90;;;12.04;100.00;99582.16;5053121;28;20209;-66
2021/10/31 02:58:22;;;;;;;11.50;9.43;;;11.20;99.90;;;12.14;100.00;99574.22;5053112;28;20209;-65
2021/10/31 03:00:57;;;;;;;12.07;9.33;;;11.30;99.90;;;12.10;100.00;99583.88;5032672;28;20641;-65
2021/10/31 03:03:29;;;;;;;12.33;9.80;;;11.20;99.90;;;11.96;100.00;99572.56;5033147;28;20609;-65
2021/10/31 03:05:58;;;;;;;10.53;9.40;;;11.20;99.90;;;11.87;100.00;99571.28;5032831;28;20285;-65
2021/10/31 03:08:27;;;;;;;11.13;9.40;;;11.10;99.90;;;12.05;100.00;99573.81;5032241;28;20325;-65
2021/10/31 03:10:59;;;;;;;11.43;9.00;;;11.20;99.90;;;11.75;100.00;99565.16;5033768;28;20198;-65
2021/10/31 03:13:30;;;;;;;11.83;9.33;;;11.10;99.90;;;11.81;100.00;99572.28;5033277;28;20240;-65
2021/10/31 03:15:58;;;;;;;10.33;8.93;;;11.00;99.90;;;11.81;100.00;99576.84;5032820;28;20222;-65
2021/10/31 03:18:26;;;;;;;12.23;8.67;;;11.00;99.90;;;11.64;100.00;99576.81;5032832;28;20688;-65
2021/10/31 03:20:54;;;;;;;9.67;8.67;;;11.00;99.90;;;11.58;100.00;99577.75;5032759;28;20209;-65
2021/10/31 03:23:23;;;;;;;11.17;9.33;;;10.90;99.90;;;11.73;100.00;99591.56;5032341;28;20626;-65
2021/10/31 03:25:51;;;;;;;9.80;8.23;;;10.90;99.90;;;11.58;100.00;99588.53;5032404;28;20212;-66
2021/10/31 03:28:20;;;;;;;10.97;9.00;;;10.90;99.90;;;11.70;100.00;99580.44;5032613;28;20225;-66
2021/10/31 03:30:49;;;;;;;9.70;8.57;;;10.90;99.90;;;11.96;100.00;99580.66;5032660;28;20585;-66
2021/10/31 03:33:17;;;;;;;9.27;8.00;;;11.00;99.90;;;11.91;100.00;99580.56;5032196;28;20208;-65
2021/10/31 03:35:45;;;;;;;9.83;8.20;;;11.10;99.90;;;11.78;100.00;99585.44;5032181;28;20419;-65
2021/10/31 03:38:13;;;;;;;9.17;8.17;;;11.00;99.90;;;11.86;100.00;99590.44;5031763;28;20688;-65
2021/10/31 03:40:41;;;;;;;10.53;8.40;;;11.10;99.90;;;11.78;100.00;99590.84;5032446;28;20770;-66
2021/10/31 03:43:09;;;;;;;9.10;8.20;;;11.00;99.90;;;11.75;100.00;99594.00;5032404;28;20214;-65
2021/10/31 03:45:40;;;;;;;10.87;8.23;;;11.00;99.90;;;11.59;100.00;99594.72;5032317;28;20205;-65
2021/10/31 03:48:08;;;;;;;9.13;8.10;;;11.00;99.90;;;11.52;100.00;99604.84;5032301;28;20248;-66
2021/10/31 03:50:36;;;;;;;11.57;8.70;;;11.00;99.90;;;11.46;100.00;99593.16;5032358;28;20573;-66
2021/10/31 03:53:04;;;;;;;10.67;8.67;;;10.90;99.90;;;11.46;100.00;99598.53;5031648;28;20768;-66
2021/10/31 03:55:32;;;;;;;10.60;8.53;;;10.90;99.90;;;11.87;100.00;99600.19;5031788;28;20232;-65
2021/10/31 03:58:00;;;;;;;9.40;8.40;;;11.00;99.90;;;11.69;100.00;99605.75;5032155;28;20205;-64
2021/10/31 04:00:28;;;;;;;9.37;8.37;;;11.00;99.90;;;11.68;100.00;99612.22;5050518;28;20212;-66
2021/10/31 04:02:58;;;;;;;10.60;8.77;;;11.00;99.90;;;12.00;100.00;99608.81;5051807;28;20304;-65
2021/10/31 04:05:27;;;;;;;9.73;8.37;;;11.00;99.90;;;11.70;100.00;99604.72;5052001;28;20193;-65
2021/10/31 04:07:56;;;;;;;11.40;8.57;;;11.00;99.90;;;11.71;100.00;99604.47;5051097;28;20260;-65
2021/10/31 04:10:24;;;;;;;9.07;7.97;;;11.00;99.90;;;11.60;100.00;99609.88;5051397;28;20284;-66
2021/10/31 04:12:52;;;;;;;9.60;8.40;;;10.90;99.90;;;11.52;100.00;99612.94;5051512;28;20648;-66
2021/10/31 04:15:24;;;;;;;10.33;8.67;;;10.90;99.90;;;11.57;100.00;99610.38;5051774;28;20279;-66
2021/10/31 04:17:53;;;;;;;11.73;9.00;;;10.80;99.90;;;11.42;100.00;99604.63;5051335;28;20697;-65
2021/10/31 04:20:22;;;;;;;11.70;9.27;;;10.80;99.90;;;11.36;100.00;99601.03;5051505;28;20547;-65
2021/10/31 04:22:50;;;;;;;10.57;8.97;;;10.70;99.90;;;11.23;100.00;99609.38;5051576;28;20197;-65
2021/10/31 04:25:18;;;;;;;9.77;8.77;;;10.70;99.90;;;11.20;100.00;99611.72;5051937;28;20574;-65
2021/10/31 04:27:46;;;;;;;11.30;9.03;;;10.60;99.90;;;11.19;100.00;99623.56;5051817;28;20201;-65
2021/10/31 04:30:14;;;;;;;11.03;8.63;;;10.60;99.90;;;11.18;100.00;99617.34;5051766;28;20201;-64
2021/10/31 04:32:43;;;;;;;10.07;8.83;;;10.50;99.90;;;11.15;100.00;99612.44;5051849;28;20554;-65
2021/10/31 04:35:12;;;;;;;11.43;9.10;;;10.50;99.90;;;11.26;100.00;99610.78;5051262;28;20202;-65
2021/10/31 04:37:44;;;;;;;10.07;9.00;;;10.50;99.90;;;11.35;100.00;99610.16;5051432;28;20205;-64
2021/10/31 04:40:17;;;;;;;12.00;9.73;;;10.50;99.90;;;11.28;100.00;99617.56;5051541;28;20276;-65
2021/10/31 04:42:45;;;;;;;10.90;9.30;;;10.50;99.90;;;11.24;100.00;99611.03;5051705;28;20239;-66
2021/10/31 04:45:13;;;;;;;10.97;8.67;;;10.50;99.90;;;11.15;100.00;99615.13;5051599;28;20205;-65
2021/10/31 04:47:41;;;;;;;9.57;8.57;;;10.50;99.90;;;11.11;100.00;99608.59;5051462;28;20193;-65
2021/10/31 04:50:09;;;;;;;10.97;9.13;;;10.50;99.90;;;11.05;100.00;99602.25;5051664;28;20209;-64
2021/10/31 04:52:42;;;;;;;9.80;8.63;;;10.40;99.90;;;11.08;100.00;99599.09;5050764;28;20688;-65
2021/10/31 04:55:13;;;;;;;11.03;9.50;;;10.40;99.90;;;11.19;100.00;99602.00;5051220;28;20693;-64
2021/10/31 04:57:41;;;;;;;12.63;9.47;;;10.40;99.90;;;11.52;100.00;99597.56;5051317;28;20305;-64
2021/10/31 05:00:14;;;;;;;10.20;9.03;;;10.50;99.90;;;11.40;100.00;99604.88;5051470;28;20609;-66
2021/10/31 05:02:42;;;;;;;10.53;8.43;;;10.50;99.90;;;11.30;100.00;99596.56;5051510;28;20190;-66
2021/10/31 05:05:10;;;;;;;9.77;8.83;;;10.50;99.90;;;11.13;100.00;99601.06;5051243;28;20206;-65
2021/10/31 05:07:38;;;;;;;9.43;8.47;;;10.50;99.90;;;11.08;100.00;99598.25;5050567;28;20237;-65
2021/10/31 05:10:07;;;;;;;11.87;9.17;;;10.40;99.90;;;11.09;100.00;99594.53;5051278;28;20204;-64
2021/10/31 05:12:36;;;;;;;9.83;8.70;;;10.40;99.90;;;11.02;100.00;99597.34;5051433;28;20284;-65
2021/10/31 05:15:06;;;;;;;11.83;9.73;;;10.40;99.90;;;11.20;100.00;99588.28;5051111;28;20661;-66
2021/10/31 05:17:33;;;;;;;10.63;9.13;;;10.40;99.90;;;11.27;100.00;99588.97;5051493;28;20229;-65
2021/10/31 05:20:02;;;;;;;9.53;8.60;;;10.40;99.90;;;11.13;100.00;99594.88;5051186;28;20225;-65
2021/10/31 05:22:31;;;;;;;10.00;8.83;;;10.40;99.90;;;11.11;100.00;99597.81;5052120;28;20755;-65
2021/10/31 05:24:59;;;;;;;10.40;9.23;;;10.40;99.90;;;11.08;100.00;99592.88;5055069;28;20229;-65
2021/10/31 05:27:27;;;;;;;10.50;8.70;;;10.40;99.90;;;10.94;100.00;99596.88;5055018;28;20283;-64
2021/10/31 05:29:56;;;;;;;9.63;8.63;;;10.40;99.90;;;10.85;100.00;99593.72;5054959;28;20225;-65
2021/10/31 05:32:31;;;;;;;10.47;9.13;;;10.30;99.90;;;10.88;100.00;99592.44;5054852;28;20309;-65
2021/10/31 05:34:59;;;;;;;10.23;9.03;;;10.30;99.90;;;11.03;100.00;99585.50;5054324;28;20189;-65
2021/10/31 05:37:31;;;;;;;13.70;9.80;;;10.20;99.90;;;11.06;100.00;99585.03;5054411;28;20225;-65
2021/10/31 05:39:59;;;;;;;10.67;9.57;;;10.30;99.90;;;10.98;100.00;99588.09;5054785;28;20185;-65
2021/10/31 05:42:27;;;;;;;11.20;9.23;;;10.30;99.90;;;10.86;100.00;99584.56;5054318;28;20592;-64
2021/10/31 05:44:56;;;;;;;9.60;8.60;;;10.30;99.90;;;10.82;100.00;99594.19;5054663;28;20288;-65
2021/10/31 05:47:25;;;;;;;10.03;9.03;;;10.20;99.90;;;10.91;100.00;99605.41;5054734;28;20233;-66
2021/10/31 05:49:54;;;;;;;10.60;8.93;;;10.20;99.90;;;10.85;100.00;99607.19;5054134;28;20691;-65
2021/10/31 05:52:22;;;;;;;11.53;9.13;;;10.20;99.90;;;10.85;100.00;99609.91;5053641;28;20292;-64
2021/10/31 05:54:50;;;;;;;11.87;9.70;;;10.20;99.90;;;10.90;100.00;99611.88;5054084;28;20796;-66
2021/10/31 05:57:18;;;;;;;11.30;9.10;;;10.20;99.90;;;10.87;100.00;99613.16;5054287;28;20225;-65
2021/10/31 05:59:46;;;;;;;11.37;10.00;;;10.20;99.90;;;10.95;100.00;99614.69;5054185;28;20335;-65
2021/10/31 06:02:15;;;;;;;10.50;9.40;;;10.20;99.90;;;10.88;100.00;99612.13;5054163;28;20296;-65
2021/10/31 06:04:45;;;;;;;10.27;8.90;;;10.20;99.90;;;10.84;100.00;99619.00;5054160;28;20201;-65
2021/10/31 06:07:13;;;;;;;12.77;9.80;;;10.20;99.90;;;10.87;100.00;99620.44;5053424;28;20252;-65
2021/10/31 06:09:42;;;;;;;12.27;8.70;;;10.20;99.90;;;10.85;100.00;99623.38;5054129;28;20201;-64
2021/10/31 06:12:10;;;;;;;10.70;9.53;;;10.20;99.90;;;10.88;100.00;99622.06;5054089;28;20291;-65
2021/10/31 06:14:39;;;;;;;10.70;9.60;;;10.20;99.90;;;10.89;100.00;99624.53;5053866;28;20694;-65
2021/10/31 06:17:07;;;;;;;10.43;9.33;;;10.20;99.90;;;10.96;100.00;99624.41;5053581;28;20664;-65
2021/10/31 06:19:39;;;;;;;10.67;9.23;;;10.20;99.90;;;10.98;100.00;99630.38;5053801;28;20297;-65
2021/10/31 06:22:07;;;;;;;11.77;9.17;;;10.30;99.90;;;11.02;100.00;99626.16;5053860;28;20196;-65
2021/10/31 06:24:36;;;;;;;11.90;9.87;;;10.30;99.90;;;11.22;100.00;99629.31;5047513;28;20289;-65
2021/10/31 06:27:05;;;;;;;10.70;9.10;;;10.40;99.90;;;11.25;100.00;99628.81;5047260;28;20360;-65
2021/10/31 06:29:33;;;;;;;10.93;9.10;;;10.50;99.90;;;11.43;100.00;99627.88;5053683;28;20691;-65
2021/10/31 06:32:01;;;;;;;10.70;9.30;;;10.60;99.90;;;11.50;100.00;99628.56;5053668;28;20209;-64
2021/10/31 06:34:29;;;;;;;12.43;9.80;;;10.60;99.90;;;11.59;100.00;99632.50;5052848;28;20244;-66
2021/10/31 06:36:58;;;;;;;10.27;9.10;;;10.70;99.90;;;11.60;100.00;99639.56;5053183;28;20332;-65
2021/10/31 06:39:26;;;;;;;11.03;9.33;;;10.80;99.90;;;11.60;100.00;99644.94;5053825;28;20197;-65
2021/10/31 06:41:54;;;;;;;11.90;9.50;;;10.90;99.90;;;11.88;100.00;99634.19;5053741;28;20204;-65
2021/10/31 06:44:22;;;;;;;12.03;9.47;;;10.90;99.90;;;11.96;100.00;99640.03;5053276;28;20711;-65
2021/10/31 06:46:50;;;;;;;11.13;9.73;;;11.10;99.90;;;12.04;100.00;99644.25;5054979;28;20248;-65
2021/10/31 06:49:18;;;;;;;11.27;9.67;;;11.10;99.90;;;12.05;100.00;99641.31;5053571;28;20296;-66
2021/10/31 06:51:46;;;;;;;11.97;9.50;;;11.20;99.90;;;12.24;100.00;99652.72;5052765;28;20208;-66
2021/10/31 06:54:16;;;;;;;16.33;9.43;;;11.30;99.90;;;12.41;100.00;99652.72;5053041;28;20665;-65
2021/10/31 06:56:44;;;;;;;11.97;9.60;;;11.40;99.90;;;12.53;100.00;99661.59;5053220;28;20198;-65
2021/10/31 06:59:12;;;;;;;10.97;9.20;;;11.60;99.90;;;12.58;100.00;99664.38;5053177;28;20286;-66
2021/10/31 07:01:40;;;;;;;10.10;8.53;;;11.60;99.90;;;12.54;100.00;99663.22;5052876;28;20205;-65
2021/10/31 07:04:09;;;;;;;10.60;9.50;;;11.70;99.90;;;12.87;100.00;99677.56;5052416;28;20225;-67
2021/10/31 07:06:37;;;;;;;10.00;8.90;;;11.80;99.90;;;13.00;100.00;99679.94;5052735;28;20297;-65
2021/10/31 07:09:06;;;;;;;11.25;8.70;;;11.80;99.90;;;13.15;100.00;99676.69;5052944;28;20189;-65
2021/10/31 07:11:35;;;;;;;9.83;8.60;;;12.00;99.90;;;13.05;100.00;99673.81;5052803;28;20280;-66
2021/10/31 07:14:09;;;;;;;10.37;8.70;;;12.10;99.90;;;13.33;100.00;99668.28;5052950;28;20195;-65
2021/10/31 07:16:37;;;;;;;11.27;8.67;;;12.20;99.90;;;13.35;100.00;99660.72;5052973;28;20208;-66
2021/10/31 07:19:06;;;;;;;9.67;8.60;;;12.30;99.90;;;13.76;100.00;99673.75;5052613;28;20661;-66
2021/10/31 07:21:37;;;;;;;10.07;8.03;;;12.40;99.90;;;13.69;100.00;99669.56;5052669;28;20287;-66
2021/10/31 07:24:06;;;;;;;9.57;8.57;;;12.60;99.90;;;13.91;100.00;99664.97;5052793;28;20224;-65
2021/10/31 07:26:35;;;;;;;9.47;8.43;;;12.70;99.90;;;13.82;100.00;99675.41;5052445;28;20288;-65
2021/10/31 07:29:05;;;;;;;9.00;8.10;;;12.80;99.90;;;14.00;100.00;99674.28;5052818;28;20208;-65
2021/10/31 07:31:38;;;;;;;9.63;8.03;;;12.80;99.90;;;13.95;100.00;99676.94;5052776;28;20297;-65
2021/10/31 07:34:09;;;;;;;9.23;7.87;;;12.90;99.90;;;14.00;100.00;99675.13;5052272;28;20192;-65
2021/10/31 07:36:37;;;;;;;8.17;7.37;;;13.00;99.90;;;14.09;100.00;99681.69;5052446;28;20269;-66
2021/10/31 07:39:06;;;;;;;9.60;8.40;;;13.10;99.90;;;14.41;100.00;99681.78;5052794;28;20217;-65
2021/10/31 07:41:36;;;;;;;8.70;7.78;;;13.20;99.90;;;14.43;100.00;99676.94;5052517;28;20568;-65
2021/10/31 07:44:05;;;;;;;9.18;7.25;;;13.30;99.90;;;14.30;100.00;99672.75;5052646;28;20225;-65
2021/10/31 07:46:34;;;;;;;9.40;7.50;;;13.30;99.90;;;14.34;100.00;99673.88;5051853;28;20284;-65
2021/10/31 07:49:02;;;;;;;9.50;7.30;;;13.30;99.90;;;14.34;100.00;99665.75;5052023;28;20198;-66
2021/10/31 07:51:30;;;;;;;8.50;7.60;;;13.30;99.90;;;14.41;100.00;99673.66;5051810;28;20296;-65
2021/10/31 07:53:59;;;;;;;8.93;8.02;;;13.40;99.90;;;14.53;100.00;99671.59;5051757;28;20206;-66
2021/10/31 07:56:30;;;;;;;8.70;7.47;;;13.50;99.90;;;14.37;100.00;99670.66;5052370;28;20289;-65
2021/10/31 07:58:59;;;;;;;7.45;6.65;;;13.50;99.90;;;14.34;100.00;99664.94;5051639;28;20791;-65
2021/10/31 08:01:28;;;;;;;9.45;7.43;;;13.40;99.90;;;14.37;100.00;99657.13;5052183;28;20202;-65
2021/10/31 08:03:57;;;;;;;10.15;7.55;;;13.50;99.90;;;14.40;100.00;99659.31;5051693;28;20251;-65
2021/10/31 08:06:26;;;;;;;9.20;7.57;;;13.40;99.90;;;14.55;100.00;99655.91;5051628;28;20237;-66
2021/10/31 08:08:54;;;;;;;8.10;7.30;;;13.50;99.90;;;14.75;100.00;99656.06;5051776;28;20181;-65
2021/10/31 08:11:22;;;;;;;10.00;8.40;;;13.60;99.90;;;14.90;100.00;99653.47;5051445;28;20248;-66
2021/10/31 08:13:50;;;;;;;8.32;7.53;;;13.60;99.90;;;14.99;100.00;99651.09;5052096;28;20293;-65
2021/10/31 08:16:22;;;;;;;8.20;7.40;;;13.80;99.90;;;14.93;100.00;99641.31;5051341;28;20288;-65
2021/10/31 08:18:50;;;;;;;8.45;7.60;;;13.80;99.90;;;14.96;100.00;99646.22;5048634;28;20303;-66
2021/10/31 08:21:18;;;;;;;8.20;7.25;;;13.90;99.90;;;14.98;100.00;99639.47;5051934;28;20227;-65
2021/10/31 08:23:47;;;;;;;8.73;7.82;;;14.00;99.90;;;14.90;100.00;99641.84;5051739;28;20260;-65
2021/10/31 08:26:16;;;;;;;9.00;8.10;;;14.00;99.90;;;14.99;100.00;99640.25;5051527;28;20669;-66
2021/10/31 08:28:44;;;;;;;9.18;8.00;;;14.00;99.90;;;14.99;100.00;99637.53;5051339;28;20279;-65
2021/10/31 08:31:12;;;;;;;9.60;8.60;;;14.00;99.90;;;15.20;100.00;99632.00;5051166;28;20591;-67
2021/10/31 08:33:45;;;;;;;8.75;7.95;;;14.00;99.90;;;15.16;100.00;99630.06;5051645;28;20262;-66
2021/10/31 08:36:14;;;;;;;10.40;8.75;;;14.10;99.90;;;15.05;100.00;99625.66;5052183;28;20232;-65
2021/10/31 08:38:42;;;;;;;9.65;8.65;;;14.10;99.90;;;15.14;100.00;99629.50;5051495;28;20313;-66
2021/10/31 08:41:11;;;;;;;9.77;8.77;;;14.20;99.90;;;15.06;100.00;99624.56;5051731;28;20288;-65
2021/10/31 08:43:40;;;;;;;10.15;8.50;;;14.20;99.90;;;15.11;100.00;99622.72;5051449;28;20308;-66
2021/10/31 08:46:08;;;;;;;9.82;8.68;;;14.20;99.90;;;15.21;100.00;99622.78;5051217;28;20201;-66
2021/10/31 08:48:38;;;;;;;10.32;9.02;;;14.30;99.90;;;15.24;100.00;99618.69;5051373;28;20204;-66
2021/10/31 08:51:08;;;;;;;9.45;8.23;;;14.30;99.90;;;15.41;100.00;99613.94;5051731;28;20236;-66
2021/10/31 08:53:37;;;;;;;10.00;8.57;;;14.40;99.90;;;15.27;100.00;99616.28;5050936;28;20224;-66
2021/10/31 08:56:10;;;;;;;10.18;8.98;;;14.40;99.90;;;15.42;100.00;99616.41;5051595;28;20201;-66
2021/10/31 08:58:39;;;;;;;9.82;8.82;;;14.40;99.90;;;15.45;100.00;99618.59;5054702;28;20212;-66
2021/10/31 09:01:08;;;;;;;9.65;8.63;;;14.50;99.90;;;15.48;100.00;99623.50;5053557;28;20291;-66
2021/10/31 09:03:36;;;;;;;9.80;8.80;;;14.60;99.90;;;15.61;100.00;99617.56;5035301;28;20212;-67
2021/10/31 09:06:07;;;;;;;9.25;7.70;;;14.70;99.90;;;15.69;100.00;99618.97;5035557;28;20202;-66
2021/10/31 09:08:35;;;;;;;11.75;7.70;;;14.70;99.90;;;15.73;100.00;99611.91;5034888;28;20334;-65
2021/10/31 09:11:03;;;;;;;9.05;8.13;;;14.80;99.90;;;15.87;99.95;99615.75;5035480;28;20216;-65
2021/10/31 09:13:31;;;;;;;8.68;7.78;;;14.80;99.90;;;16.07;98.65;99610.38;5035388;28;20233;-65
2021/10/31 09:16:00;;;;;;;8.85;7.82;;;15.00;99.90;;;16.03;98.17;99594.88;5035239;28;20198;-66
2021/10/31 09:18:29;;;;;;;9.20;8.30;;;15.00;99.90;;;16.18;97.66;99582.16;5034667;28;20229;-66
2021/10/31 09:20:57;;;;;;;9.55;8.50;;;15.20;99.90;;;16.23;97.03;99584.03;5035223;28;20237;-66
2021/10/31 09:23:26;;;;;;;10.00;8.25;;;15.20;99.90;;;16.30;97.03;99576.44;5034714;28;20278;-66
2021/10/31 09:25:54;;;;;;;8.43;7.57;;;15.30;99.90;;;16.42;96.20;99579.72;5035050;28;20202;-65
2021/10/31 09:28:22;;;;;;;8.10;7.30;;;15.40;99.90;;;16.54;96.06;99583.81;5037333;28;20218;-66
2021/10/31 09:30:50;;;;;;;8.23;7.40;;;15.50;99.90;;;16.68;95.48;99590.34;5034872;28;20664;-66
2021/10/31 09:33:19;;;;;;;9.32;7.85;;;15.60;99.90;;;16.87;93.96;99577.81;5034135;28;20305;-66
2021/10/31 09:35:48;;;;;;;7.75;6.97;;;15.80;99.90;;;17.00;93.73;99579.13;5034908;28;20288;-66
2021/10/31 09:38:19;;;;;;;8.77;7.00;;;15.90;99.90;;;17.19;92.72;99573.91;5034735;28;20225;-64
2021/10/31 09:40:49;;;;;;;7.85;7.15;;;16.00;99.90;;;17.17;92.81;99582.34;5035147;28;20281;-66
2021/10/31 09:43:18;;;;;;;8.05;7.22;;;16.10;99.90;;;17.28;91.91;99570.34;5034625;28;20229;-66
2021/10/31 09:45:46;;;;;;;10.20;7.32;;;16.20;99.90;;;17.32;91.00;99571.41;5049552;28;20205;-65
2021/10/31 09:48:16;;;;;;;7.60;6.80;;;16.30;99.90;;;17.33;91.24;99562.16;5054130;28;20223;-66
2021/10/31 09:50:47;;;;;;;8.30;6.95;;;16.50;99.90;;;17.49;90.20;99562.94;5054476;28;20190;-66
2021/10/31 09:53:22;;;;;;;8.25;6.82;;;16.40;99.90;;;17.44;90.48;99554.75;5054728;28;20196;-61
2021/10/31 09:55:52;;;;;;;7.70;7.00;;;16.40;99.90;;;17.51;89.92;99547.94;5054250;28;20625;-61
2021/10/31 09:58:22;;;;;;;8.75;7.78;;;16.50;99.90;;;17.61;89.14;99545.19;5054027;28;20201;-63
2021/10/31 10:00:53;;;;;;;7.28;6.57;;;16.50;99.90;;;17.75;88.15;99548.09;5054151;28;20637;-62
2021/10/31 10:03:34;;;;;;;7.93;7.13;;;16.60;99.90;;;17.71;87.35;99542.41;5053566;28;20202;-63
2021/10/31 10:06:18;;;;;;;8.18;7.28;;;16.60;99.90;;;17.79;87.70;99543.72;5053896;28;20273;-61
2021/10/31 10:09:07;;;;;;;8.00;7.10;;;16.70;99.90;;;17.87;85.39;99538.50;5052678;28;20233;-60
2021/10/31 10:11:40;;;;;;;7.90;7.18;;;16.70;99.90;;;17.89;85.88;99540.94;5054244;28;20269;-60
2021/10/31 10:14:19;;;;;;;8.48;7.25;;;16.80;99.90;;;18.07;84.72;99542.97;5053729;28;20200;-61
2021/10/31 10:16:48;;;;;;;7.50;6.80;;;16.90;99.90;;;17.96;84.18;99536.00;5053904;28;20181;-61
2021/10/31 10:19:23;;;;;;;9.70;7.90;;;16.90;99.90;;;17.97;83.27;99543.88;5053597;28;20701;-61
2021/10/31 10:22:01;;;;;;;9.32;8.02;;;16.90;99.90;;;17.82;84.02;99541.25;5054035;28;20272;-61